Time;durP1;ratioP1;P1;durP2;ratioP2;P2;SDS_P1;SDS_P2;PMS_P1;PMS_P2;Temp;Humidity;BMP_temperature;BMP_pressure;BME280_temperature;BME280_humidity;BME280_pressure;Samples;Min_cycle;Max_cycle;Signal;HPM_P1;HPM_P2
2023/06/13 00:00:44;;;;;;;4.60;4.20;;;;;24.60;100380.00;;;;2069636;28;20677;-51
2023/06/13 00:01:48;;;;;;;6.18;4.50;;;;;24.70;100378.00;;;;2063317;28;20305;-52
2023/06/13 00:02:48;;;;;;;6.65;4.50;;;;;24.70;100380.00;;;;2061762;28;20222;-51
2023/06/13 00:03:49;;;;;;;4.93;4.23;;;;;24.60;100374.00;;;;2051641;28;20211;-52
2023/06/13 00:04:51;;;;;;;5.63;4.70;;;;;24.70;100369.00;;;;2066473;28;20225;-54
2023/06/13 00:05:54;;;;;;;4.70;4.30;;;;;24.70;100378.00;;;;2058587;28;20573;-50
2023/06/13 00:06:54;;;;;;;4.53;4.07;;;;;24.60;100374.00;;;;2067401;28;20469;-53
2023/06/13 00:07:56;;;;;;;6.73;4.93;;;;;24.60;100384.00;;;;2069659;28;20924;-53
2023/06/13 00:08:59;;;;;;;5.00;4.20;;;;;24.60;100380.00;;;;2054890;28;20218;-52
2023/06/13 00:09:59;;;;;;;5.20;4.70;;;;;24.60;100376.00;;;;2067423;28;20465;-51
2023/06/13 00:10:59;;;;;;;6.20;4.97;;;;;24.60;100385.00;;;;2061102;28;21139;-52
2023/06/13 00:12:00;;;;;;;5.33;4.40;;;;;24.60;100379.00;;;;2063391;28;20211;-52
2023/06/13 00:13:01;;;;;;;4.43;4.00;;;;;24.60;100382.00;;;;2048818;28;20220;-49
2023/06/13 00:14:01;;;;;;;5.17;4.43;;;;;24.60;100377.00;;;;2064126;28;20403;-51
2023/06/13 00:15:03;;;;;;;4.57;4.13;;;;;24.60;100382.00;;;;2067527;28;20473;-49
2023/06/13 00:16:04;;;;;;;4.90;4.50;;;;;24.60;100377.00;;;;2062405;28;20257;-53
2023/06/13 00:17:04;;;;;;;5.27;4.87;;;;;24.60;100383.00;;;;2063805;28;20462;-50
2023/06/13 00:18:05;;;;;;;5.13;4.73;;;;;24.60;100380.00;;;;2054710;28;20273;-53
2023/06/13 00:19:05;;;;;;;4.70;4.30;;;;;24.70;100378.00;;;;2070529;28;20235;-53
2023/06/13 00:20:06;;;;;;;4.90;4.30;;;;;24.60;100392.00;;;;2063991;28;20743;-53
2023/06/13 00:21:07;;;;;;;5.23;4.30;;;;;24.60;100390.00;;;;2069756;28;20222;-51
2023/06/13 00:22:09;;;;;;;5.23;4.73;;;;;24.60;100375.00;;;;2071313;28;20465;-52
2023/06/13 00:23:10;;;;;;;4.95;4.55;;;;;24.60;100380.00;;;;2051797;28;20466;-52
2023/06/13 00:24:10;;;;;;;4.30;3.97;;;;;24.50;100374.00;;;;2061087;28;20679;-52
2023/06/13 00:25:11;;;;;;;5.53;4.53;;;;;24.50;100382.00;;;;2062047;28;21049;-53
2023/06/13 00:26:11;;;;;;;4.77;4.30;;;;;24.50;100318.00;;;;2066744;28;20585;-51
2023/06/13 00:27:11;;;;;;;4.90;4.50;;;;;24.50;100371.00;;;;2062249;28;20230;-49
2023/06/13 00:28:12;;;;;;;5.57;5.07;;;;;24.50;100373.00;;;;2057289;28;20311;-52
2023/06/13 00:29:12;;;;;;;4.50;4.10;;;;;24.50;100371.00;;;;2070511;28;20679;-52
2023/06/13 00:30:13;;;;;;;5.73;4.63;;;;;24.50;100405.00;;;;2060846;28;20716;-51
2023/06/13 00:31:13;;;;;;;5.03;4.60;;;;;24.50;100371.00;;;;2060497;28;20767;-55
2023/06/13 00:32:13;;;;;;;4.73;4.33;;;;;24.50;100372.00;;;;2060853;28;20535;-52
2023/06/13 00:33:17;;;;;;;4.80;4.40;;;;;24.50;100354.00;;;;2051650;28;20245;-52
2023/06/13 00:34:17;;;;;;;5.63;4.75;;;;;24.50;100367.00;;;;2055986;28;20239;-49
2023/06/13 00:35:17;;;;;;;4.90;4.17;;;;;24.50;100375.00;;;;2063046;28;20211;-49
2023/06/13 00:36:20;;;;;;;5.57;5.07;;;;;24.50;100373.00;;;;2062398;28;20211;-51
2023/06/13 00:37:20;;;;;;;5.25;4.80;;;;;24.50;100370.00;;;;2063641;28;20226;-53
2023/06/13 00:38:21;;;;;;;4.30;4.00;;;;;24.60;100368.00;;;;2054818;28;20222;-54
2023/06/13 00:39:21;;;;;;;4.80;4.40;;;;;24.60;100366.00;;;;2062135;28;20210;-53
2023/06/13 00:40:22;;;;;;;9.50;4.63;;;;;24.60;100366.00;;;;2062382;28;20358;-52
2023/06/13 00:41:22;;;;;;;4.90;4.50;;;;;24.60;100369.00;;;;2057110;28;20223;-51
2023/06/13 00:42:23;;;;;;;4.93;4.40;;;;;24.50;100361.00;;;;2062757;28;20207;-53
2023/06/13 00:43:26;;;;;;;4.73;4.33;;;;;24.50;100365.00;;;;2052245;28;20272;-53
2023/06/13 00:44:27;;;;;;;5.07;4.67;;;;;24.50;100361.00;;;;2062631;28;20215;-52
2023/06/13 00:45:27;;;;;;;5.30;4.90;;;;;24.50;100358.00;;;;2060989;28;20462;-52
2023/06/13 00:46:29;;;;;;;6.23;4.97;;;;;24.50;100360.00;;;;2059269;28;20234;-50
2023/06/13 00:47:30;;;;;;;5.03;4.47;;;;;24.50;100346.00;;;;2053149;28;20463;-53
2023/06/13 00:48:31;;;;;;;4.30;3.90;;;;;24.50;100354.00;;;;2033215;28;20700;-53
2023/06/13 00:49:32;;;;;;;5.00;4.50;;;;;24.50;100361.00;;;;2052599;28;21023;-53
2023/06/13 00:50:33;;;;;;;6.00;4.63;;;;;24.50;100355.00;;;;2053727;28;20215;-51
2023/06/13 00:51:40;;;;;;;5.47;4.68;;;;;24.50;100354.00;;;;2060556;28;20254;-52
2023/06/13 00:52:40;;;;;;;4.65;4.25;;;;;24.40;100350.00;;;;2061071;28;20222;-53
2023/06/13 00:53:42;;;;;;;6.10;4.73;;;;;24.40;100359.00;;;;2050468;28;20227;-53
2023/06/13 00:54:42;;;;;;;4.67;4.20;;;;;24.40;100352.00;;;;2060388;28;20719;-53
2023/06/13 00:55:43;;;;;;;5.20;4.70;;;;;24.40;100350.00;;;;2060155;28;20474;-52
2023/06/13 00:56:44;;;;;;;5.50;4.60;;;;;24.50;100351.00;;;;2060580;28;20226;-53
2023/06/13 00:57:44;;;;;;;4.83;4.33;;;;;24.50;100346.00;;;;2057953;28;20247;-52
2023/06/13 00:58:45;;;;;;;4.63;3.67;;;;;24.50;100350.00;;;;2049552;28;20459;-53
2023/06/13 00:59:45;;;;;;;4.73;4.23;;;;;24.50;100351.00;;;;2061269;28;20254;-52
2023/06/13 01:00:46;;;;;;;5.00;4.50;;;;;24.50;100353.00;;;;2059413;28;20215;-51
2023/06/13 01:01:47;;;;;;;5.20;4.47;;;;;24.50;100353.00;;;;2059764;28;20466;-51
2023/06/13 01:02:47;;;;;;;4.70;4.30;;;;;24.50;100346.00;;;;2059357;28;20227;-53
2023/06/13 01:03:48;;;;;;;5.07;4.60;;;;;24.50;100351.00;;;;2049684;28;20469;-52
2023/06/13 01:04:51;;;;;;;4.43;4.03;;;;;24.50;100353.00;;;;2057513;28;20235;-52
2023/06/13 01:05:51;;;;;;;5.10;4.67;;;;;24.50;100347.00;;;;2064247;28;20222;-52
2023/06/13 01:06:52;;;;;;;5.57;5.10;;;;;24.50;100340.00;;;;2065235;28;20494;-52
2023/06/13 01:07:52;;;;;;;9.63;4.77;;;;;24.50;100345.00;;;;2063702;28;20253;-54
2023/06/13 01:08:58;;;;;;;4.67;4.27;;;;;24.50;100331.00;;;;2061146;28;20230;-52
2023/06/13 01:09:58;;;;;;;6.70;4.73;;;;;24.40;100340.00;;;;2061549;28;20317;-52
2023/06/13 01:11:21;;;;;;;5.27;4.20;;;;;24.50;100350.00;;;;2060379;28;20875;-52
2023/06/13 01:12:35;;;;;;;5.10;4.53;;;;;24.40;100336.00;;;;2056448;28;20223;-51
2023/06/13 01:13:43;;;;;;;8.07;5.07;;;;;24.40;100339.00;;;;2061393;28;20233;-52
2023/06/13 01:14:51;;;;;;;5.97;4.10;;;;;24.40;100336.00;;;;2051834;28;20224;-51
2023/06/13 01:15:54;;;;;;;5.20;4.70;;;;;24.40;100346.00;;;;2042984;28;20235;-51
2023/06/13 01:16:56;;;;;;;4.68;4.28;;;;;24.40;100335.00;;;;2055348;28;20246;-55
2023/06/13 01:18:00;;;;;;;4.50;4.10;;;;;24.40;100326.00;;;;2052025;28;20992;-52
2023/06/13 01:19:03;;;;;;;6.65;4.40;;;;;24.40;100331.00;;;;2052479;28;21070;-53
2023/06/13 01:20:13;;;;;;;4.40;4.00;;;;;24.30;100326.00;;;;2062249;28;20786;-52
2023/06/13 01:21:13;;;;;;;4.83;4.40;;;;;24.40;100335.00;;;;2059519;28;20214;-52
2023/06/13 01:22:16;;;;;;;4.80;4.40;;;;;24.40;100338.00;;;;2049879;28;20885;-53
2023/06/13 01:23:28;;;;;;;4.73;4.33;;;;;24.30;100325.00;;;;2047882;28;20219;-53
2023/06/13 01:24:42;;;;;;;5.32;4.85;;;;;24.30;100334.00;;;;2058570;28;20458;-52
2023/06/13 01:26:10;;;;;;;5.05;4.65;;;;;24.30;100332.00;;;;2055743;28;20370;-53
2023/06/13 01:27:12;;;;;;;4.63;4.23;;;;;24.30;100332.00;;;;2052751;28;20255;-52
2023/06/13 01:28:13;;;;;;;5.13;4.72;;;;;24.30;100318.00;;;;2051818;28;20536;-52
2023/06/13 01:29:15;;;;;;;4.73;4.33;;;;;24.30;100332.00;;;;2058993;28;20337;-52
2023/06/13 01:30:15;;;;;;;4.78;4.15;;;;;24.30;100332.00;;;;2060304;28;20234;-51
2023/06/13 01:31:16;;;;;;;5.00;4.60;;;;;24.30;100330.00;;;;2058605;28;20243;-52
2023/06/13 01:32:16;;;;;;;5.00;4.50;;;;;24.30;100325.00;;;;2060492;28;20221;-52
2023/06/13 01:33:17;;;;;;;7.27;4.97;;;;;24.30;100335.00;;;;2048176;28;20279;-53
2023/06/13 01:34:17;;;;;;;5.20;4.63;;;;;24.30;100326.00;;;;2059343;28;20218;-52
2023/06/13 01:35:17;;;;;;;5.03;4.57;;;;;24.30;100330.00;;;;2065138;28;20699;-52
2023/06/13 01:36:18;;;;;;;5.80;4.40;;;;;24.30;100334.00;;;;2051713;28;20216;-52
2023/06/13 01:37:18;;;;;;;4.90;4.40;;;;;24.30;100331.00;;;;2051988;28;20833;-52
2023/06/13 01:38:19;;;;;;;4.83;4.40;;;;;24.30;100335.00;;;;2028721;28;20228;-51
2023/06/13 01:39:19;;;;;;;5.43;4.93;;;;;24.30;100325.00;;;;2060359;28;20221;-52
2023/06/13 01:40:20;;;;;;;4.80;4.20;;;;;24.30;100331.00;;;;2068213;28;20217;-53
2023/06/13 01:41:20;;;;;;;5.23;4.67;;;;;24.30;100331.00;;;;2059575;28;20634;-52
2023/06/13 01:42:20;;;;;;;5.33;4.83;;;;;24.20;100334.00;;;;2061147;28;20210;-52
2023/06/13 01:43:21;;;;;;;5.23;4.63;;;;;24.30;100335.00;;;;2050779;28;20226;-53
2023/06/13 01:44:21;;;;;;;6.17;4.70;;;;;24.20;100330.00;;;;2056000;28;20321;-53
2023/06/13 01:45:22;;;;;;;8.37;5.00;;;;;24.20;100334.00;;;;2054597;28;20223;-52
2023/06/13 01:46:28;;;;;;;4.57;4.17;;;;;24.30;100326.00;;;;2060663;28;20226;-52
2023/06/13 01:47:39;;;;;;;4.68;4.28;;;;;24.30;100321.00;;;;2059622;28;20747;-52
2023/06/13 01:49:19;;;;;;;5.43;4.93;;;;;24.30;100333.00;;;;2045003;28;20227;-52
2023/06/13 01:50:22;;;;;;;5.20;4.13;;;;;24.20;100332.00;;;;2054540;28;20250;-49
2023/06/13 01:51:39;;;;;;;5.25;4.82;;;;;24.20;100321.00;;;;2054336;28;20218;-51
2023/06/13 01:52:44;;;;;;;5.60;4.65;;;;;24.30;100331.00;;;;2054373;28;20227;-52
2023/06/13 01:53:49;;;;;;;4.57;4.18;;;;;24.30;100322.00;;;;2044523;28;20215;-52
2023/06/13 01:54:55;;;;;;;6.20;4.43;;;;;24.30;100330.00;;;;2051332;28;20226;-50
2023/06/13 01:55:57;;;;;;;5.30;4.80;;;;;24.30;100318.00;;;;2057834;28;20250;-55
2023/06/13 01:57:00;;;;;;;5.40;4.70;;;;;24.30;100331.00;;;;2059448;28;20246;-50
2023/06/13 01:58:09;;;;;;;5.13;4.60;;;;;24.20;100335.00;;;;2045309;28;20250;-51
2023/06/13 01:59:10;;;;;;;5.53;5.03;;;;;24.30;100330.00;;;;2063661;28;20836;-50
2023/06/13 02:00:13;;;;;;;4.78;4.35;;;;;24.30;100320.00;;;;2071211;28;20443;-52
2023/06/13 02:01:13;;;;;;;6.35;4.53;;;;;24.30;100332.00;;;;2057974;28;20269;-52
2023/06/13 02:02:14;;;;;;;5.37;4.37;;;;;24.30;100322.00;;;;2043332;28;20216;-52
2023/06/13 02:03:14;;;;;;;5.97;4.97;;;;;24.30;100325.00;;;;2023835;28;20725;-52
2023/06/13 02:04:15;;;;;;;4.87;4.23;;;;;24.30;100320.00;;;;2038479;28;20272;-51
2023/06/13 02:05:15;;;;;;;5.00;4.50;;;;;24.20;100322.00;;;;2060010;28;20227;-52
2023/06/13 02:06:17;;;;;;;5.10;4.57;;;;;24.20;100325.00;;;;2060975;28;20690;-52
2023/06/13 02:07:18;;;;;;;6.53;5.28;;;;;24.20;100319.00;;;;2059195;28;20222;-52
2023/06/13 02:08:18;;;;;;;4.70;4.13;;;;;24.20;100323.00;;;;2051291;28;20211;-51
2023/06/13 02:09:18;;;;;;;4.83;4.43;;;;;24.20;100319.00;;;;2059812;28;20454;-52
2023/06/13 02:10:19;;;;;;;6.53;4.70;;;;;24.20;100318.00;;;;2068434;28;20222;-50
2023/06/13 02:11:20;;;;;;;4.97;4.57;;;;;24.20;100324.00;;;;2058533;28;20305;-52
2023/06/13 02:12:20;;;;;;;5.10;4.60;;;;;24.20;100319.00;;;;2060389;28;20214;-52
2023/06/13 02:13:21;;;;;;;5.90;4.60;;;;;24.20;100324.00;;;;2059033;28;20222;-52
2023/06/13 02:14:23;;;;;;;5.25;4.75;;;;;24.20;100331.00;;;;2059746;28;20246;-52
2023/06/13 02:15:23;;;;;;;7.40;4.60;;;;;24.00;100326.00;;;;2060900;28;20973;-50
2023/06/13 02:16:25;;;;;;;5.60;5.00;;;;;24.10;100325.00;;;;2057139;28;20525;-50
2023/06/13 02:17:26;;;;;;;4.88;4.47;;;;;24.10;100319.00;;;;2065038;28;20794;-50
2023/06/13 02:18:27;;;;;;;4.78;4.30;;;;;24.10;100324.00;;;;2053116;28;20231;-54
2023/06/13 02:19:29;;;;;;;7.30;5.00;;;;;24.20;100321.00;;;;2059465;28;20585;-52
2023/06/13 02:20:30;;;;;;;4.80;4.40;;;;;24.20;100314.00;;;;2066160;28;20508;-52
2023/06/13 02:21:30;;;;;;;7.40;4.60;;;;;24.20;100324.00;;;;2058689;28;20483;-52
2023/06/13 02:22:30;;;;;;;5.27;4.73;;;;;24.30;100321.00;;;;2061034;28;20223;-52
2023/06/13 02:23:31;;;;;;;5.27;4.77;;;;;24.30;100319.00;;;;2047949;28;20603;-52
2023/06/13 02:24:31;;;;;;;4.63;4.23;;;;;24.20;100318.00;;;;2068944;28;20653;-52
2023/06/13 02:25:32;;;;;;;5.30;4.80;;;;;24.20;100324.00;;;;2064064;28;20218;-50
2023/06/13 02:26:32;;;;;;;4.80;4.40;;;;;24.20;100319.00;;;;2061103;28;20214;-51
2023/06/13 02:27:33;;;;;;;4.83;4.43;;;;;24.10;100320.00;;;;2061585;28;20207;-51
2023/06/13 02:28:33;;;;;;;4.40;4.00;;;;;24.10;100325.00;;;;2051637;28;20307;-52
2023/06/13 02:29:35;;;;;;;5.23;4.73;;;;;24.10;100320.00;;;;2067598;28;20210;-51
2023/06/13 02:30:35;;;;;;;4.60;4.20;;;;;24.20;100321.00;;;;2061352;28;20199;-51
2023/06/13 02:31:38;;;;;;;4.70;4.30;;;;;24.20;100310.00;;;;2067766;28;20469;-52
2023/06/13 02:32:39;;;;;;;5.80;4.63;;;;;24.20;100319.00;;;;2061481;28;20238;-51
2023/06/13 02:33:40;;;;;;;4.83;4.43;;;;;24.20;100323.00;;;;2054383;28;20249;-51
2023/06/13 02:34:40;;;;;;;5.23;4.73;;;;;24.20;100326.00;;;;2061208;28;20466;-51
2023/06/13 02:35:43;;;;;;;5.13;4.63;;;;;24.20;100317.00;;;;2062893;28;20230;-50
2023/06/13 02:36:43;;;;;;;5.00;4.60;;;;;24.20;100317.00;;;;2065843;28;20222;-52
2023/06/13 02:37:44;;;;;;;4.70;4.30;;;;;24.20;100321.00;;;;2062563;28;20223;-52
2023/06/13 02:38:44;;;;;;;5.63;5.13;;;;;24.10;100311.00;;;;2055726;28;20222;-52
2023/06/13 02:39:44;;;;;;;5.90;4.53;;;;;24.20;100315.00;;;;2063755;28;20219;-50
2023/06/13 02:40:45;;;;;;;4.67;4.27;;;;;24.20;100310.00;;;;2060770;28;20226;-51
2023/06/13 02:41:45;;;;;;;5.60;5.03;;;;;24.20;100307.00;;;;2059745;28;20301;-52
2023/06/13 02:42:47;;;;;;;4.90;4.50;;;;;24.20;100320.00;;;;2057526;28;20267;-51
2023/06/13 02:43:47;;;;;;;6.07;4.38;;;;;24.20;100316.00;;;;2051732;28;20233;-52
2023/06/13 02:44:48;;;;;;;5.20;4.80;;;;;24.20;100311.00;;;;2059960;28;20222;-52
2023/06/13 02:45:49;;;;;;;5.00;4.50;;;;;24.20;100318.00;;;;2063996;28;20214;-52
2023/06/13 02:46:50;;;;;;;5.10;4.60;;;;;24.10;100303.00;;;;2062672;28;20227;-52
2023/06/13 02:47:50;;;;;;;5.73;4.70;;;;;24.10;100313.00;;;;2060968;28;20883;-52
2023/06/13 02:48:51;;;;;;;5.50;5.00;;;;;24.10;100312.00;;;;2051357;28;20762;-52
2023/06/13 02:49:51;;;;;;;5.03;4.53;;;;;23.90;100314.00;;;;2064382;28;20225;-49
2023/06/13 02:50:53;;;;;;;5.87;4.80;;;;;24.20;100314.00;;;;2065307;28;20223;-51
2023/06/13 02:51:53;;;;;;;6.25;5.20;;;;;24.10;100318.00;;;;2059121;28;20223;-50
2023/06/13 02:52:54;;;;;;;4.90;4.50;;;;;24.10;100319.00;;;;2062079;28;20218;-51
2023/06/13 02:53:55;;;;;;;5.37;4.87;;;;;24.20;100317.00;;;;2049665;28;20214;-52
2023/06/13 02:54:55;;;;;;;4.33;3.93;;;;;24.20;100313.00;;;;2060481;28;20229;-52
2023/06/13 02:55:55;;;;;;;5.17;4.70;;;;;24.20;100320.00;;;;2060343;28;20219;-52
2023/06/13 02:56:56;;;;;;;5.17;4.77;;;;;24.10;100315.00;;;;2064818;28;20217;-50
2023/06/13 02:57:56;;;;;;;5.50;4.93;;;;;24.10;100314.00;;;;2064400;28;20211;-51
2023/06/13 02:58:56;;;;;;;5.40;4.90;;;;;24.10;100313.00;;;;2056192;28;20367;-52
2023/06/13 02:59:58;;;;;;;5.60;5.10;;;;;24.20;100319.00;;;;2068305;28;20290;-52
2023/06/13 03:00:59;;;;;;;4.72;4.32;;;;;24.20;100313.00;;;;2059521;28;20211;-52
2023/06/13 03:02:00;;;;;;;5.33;4.87;;;;;24.20;100334.00;;;;2055453;28;20440;-52
2023/06/13 03:03:03;;;;;;;5.13;4.63;;;;;24.20;100313.00;;;;2047701;28;20864;-50
2023/06/13 03:04:03;;;;;;;5.05;4.57;;;;;24.20;100315.00;;;;2056683;28;20311;-51
2023/06/13 03:05:07;;;;;;;5.40;4.90;;;;;24.20;100316.00;;;;2060627;28;20210;-51
2023/06/13 03:06:08;;;;;;;5.57;5.07;;;;;24.20;100321.00;;;;2059493;28;20207;-52
2023/06/13 03:07:10;;;;;;;5.30;4.80;;;;;24.20;100316.00;;;;2066268;28;20468;-52
2023/06/13 03:08:11;;;;;;;5.45;4.45;;;;;24.20;100313.00;;;;2048537;28;20790;-50
2023/06/13 03:09:11;;;;;;;5.53;5.00;;;;;24.20;100323.00;;;;2063704;28;20221;-53
2023/06/13 03:10:12;;;;;;;5.90;5.10;;;;;24.20;100312.00;;;;2059034;28;20219;-51
2023/06/13 03:11:13;;;;;;;5.73;4.83;;;;;24.20;100319.00;;;;2053398;28;20423;-50
2023/06/13 03:12:13;;;;;;;6.80;5.07;;;;;24.20;100324.00;;;;2058787;28;20277;-51
2023/06/13 03:13:13;;;;;;;6.27;5.40;;;;;24.10;100313.00;;;;2050772;28;20214;-51
2023/06/13 03:14:16;;;;;;;5.40;5.00;;;;;24.20;100322.00;;;;2060775;28;20269;-52
2023/06/13 03:15:17;;;;;;;4.82;4.43;;;;;24.20;100266.00;;;;2058987;28;20226;-50
2023/06/13 03:16:18;;;;;;;5.20;4.70;;;;;24.10;100322.00;;;;2060839;28;20228;-51
2023/06/13 03:17:19;;;;;;;4.90;4.50;;;;;24.10;100331.00;;;;2059465;28;20282;-50
2023/06/13 03:18:19;;;;;;;4.80;4.40;;;;;24.10;100320.00;;;;2044280;28;23194;-50
2023/06/13 03:19:19;;;;;;;6.00;5.40;;;;;24.00;100326.00;;;;2059203;28;20222;-50
2023/06/13 03:20:21;;;;;;;4.97;4.47;;;;;24.00;100333.00;;;;2059936;28;20277;-52
2023/06/13 03:21:21;;;;;;;5.68;5.05;;;;;24.10;100332.00;;;;2059664;28;20219;-50
2023/06/13 03:22:21;;;;;;;5.10;4.60;;;;;24.10;100334.00;;;;2058011;28;20290;-51
2023/06/13 03:23:22;;;;;;;5.80;4.97;;;;;24.10;100326.00;;;;2044121;28;20223;-52
2023/06/13 03:24:22;;;;;;;6.13;4.80;;;;;24.10;100336.00;;;;2059721;28;20249;-52
2023/06/13 03:25:22;;;;;;;6.20;5.60;;;;;24.10;100341.00;;;;2063718;28;20215;-52
2023/06/13 03:26:25;;;;;;;5.17;4.63;;;;;24.10;100335.00;;;;2062213;28;20223;-53
2023/06/13 03:27:25;;;;;;;5.22;4.82;;;;;24.10;100332.00;;;;2060959;28;20262;-48
2023/06/13 03:28:26;;;;;;;5.90;5.30;;;;;24.10;100337.00;;;;2052624;28;20683;-52
2023/06/13 03:29:26;;;;;;;6.27;4.77;;;;;24.10;100335.00;;;;2064409;28;20751;-53
2023/06/13 03:30:26;;;;;;;6.17;5.20;;;;;24.00;100336.00;;;;2060126;28;20734;-53
2023/06/13 03:31:27;;;;;;;5.60;5.10;;;;;24.00;100337.00;;;;2058486;28;20558;-51
2023/06/13 03:32:27;;;;;;;5.43;4.93;;;;;24.00;100326.00;;;;2060503;28;20700;-53
2023/06/13 03:33:28;;;;;;;6.47;4.80;;;;;24.10;100321.00;;;;2051519;28;20562;-49
2023/06/13 03:34:31;;;;;;;5.43;4.93;;;;;24.10;100322.00;;;;2060625;28;20215;-51
2023/06/13 03:35:31;;;;;;;6.07;5.05;;;;;24.00;100332.00;;;;2059508;28;20219;-49
2023/06/13 03:36:37;;;;;;;6.57;5.70;;;;;24.00;100322.00;;;;2064302;28;20211;-53
2023/06/13 03:37:37;;;;;;;5.55;5.05;;;;;24.00;100330.00;;;;2060952;28;20215;-53
2023/06/13 03:38:39;;;;;;;6.20;5.20;;;;;24.00;100321.00;;;;2051441;28;20308;-53
2023/06/13 03:39:39;;;;;;;5.65;5.15;;;;;24.10;100323.00;;;;2060102;28;21041;-53
2023/06/13 03:40:40;;;;;;;5.20;4.63;;;;;24.10;100324.00;;;;2061068;28;20218;-52
2023/06/13 03:41:40;;;;;;;5.50;5.00;;;;;24.10;100326.00;;;;2060537;28;20215;-51
2023/06/13 03:42:40;;;;;;;6.23;4.87;;;;;24.20;100331.00;;;;2062819;28;20218;-52
2023/06/13 03:43:41;;;;;;;5.40;4.90;;;;;24.10;100320.00;;;;2050949;28;20230;-52
2023/06/13 03:44:46;;;;;;;5.97;5.07;;;;;24.00;100321.00;;;;2054243;28;20220;-52
2023/06/13 03:45:48;;;;;;;5.55;4.60;;;;;24.00;100326.00;;;;2060152;28;20215;-53
2023/06/13 03:46:48;;;;;;;4.97;4.47;;;;;24.10;100330.00;;;;2058470;28;20727;-52
2023/06/13 03:47:48;;;;;;;5.70;5.10;;;;;24.00;100340.00;;;;2055432;28;20222;-52
2023/06/13 03:48:51;;;;;;;5.70;4.73;;;;;24.10;100335.00;;;;2048782;28;20582;-53
2023/06/13 03:49:51;;;;;;;6.10;5.35;;;;;24.00;100326.00;;;;2063619;28;20678;-53
2023/06/13 03:50:51;;;;;;;9.50;5.30;;;;;24.00;100331.00;;;;2062790;28;20339;-51
2023/06/13 03:51:52;;;;;;;5.67;4.73;;;;;24.00;100324.00;;;;2060033;28;20227;-52
2023/06/13 03:52:52;;;;;;;5.10;4.60;;;;;24.10;100330.00;;;;2060247;28;20658;-52
2023/06/13 03:53:52;;;;;;;5.23;4.73;;;;;24.10;100335.00;;;;2047330;28;20306;-52
2023/06/13 03:54:53;;;;;;;5.47;4.97;;;;;24.10;100334.00;;;;2057899;28;20251;-52
2023/06/13 03:55:53;;;;;;;5.20;4.70;;;;;24.00;100330.00;;;;2060020;28;20214;-52
2023/06/13 03:56:53;;;;;;;5.30;4.80;;;;;24.00;100332.00;;;;2061154;28;20219;-52
2023/06/13 03:57:54;;;;;;;6.17;4.67;;;;;24.00;100341.00;;;;2060105;28;20223;-52
2023/06/13 03:58:54;;;;;;;5.93;5.07;;;;;24.10;100323.00;;;;2051383;28;20679;-52
2023/06/13 03:59:55;;;;;;;5.43;4.80;;;;;24.10;100337.00;;;;2059975;28;20986;-52
2023/06/13 04:00:57;;;;;;;7.43;5.10;;;;;24.10;100331.00;;;;2062901;28;20245;-52
2023/06/13 04:01:57;;;;;;;7.10;4.95;;;;;24.10;100331.00;;;;2059581;28;20215;-52
2023/06/13 04:03:00;;;;;;;5.53;5.03;;;;;24.10;100337.00;;;;2059982;28;20354;-52
2023/06/13 04:04:00;;;;;;;5.70;5.10;;;;;24.10;100334.00;;;;2060737;28;20214;-52
2023/06/13 04:05:01;;;;;;;5.53;5.03;;;;;24.10;100334.00;;;;2055572;28;20747;-51
2023/06/13 04:06:01;;;;;;;6.43;5.47;;;;;24.10;100332.00;;;;2056970;28;20226;-51
2023/06/13 04:07:05;;;;;;;5.80;5.10;;;;;24.00;100334.00;;;;2059515;28;20731;-52
2023/06/13 04:08:06;;;;;;;5.55;5.05;;;;;24.00;100339.00;;;;2055363;28;20214;-52
2023/06/13 04:09:07;;;;;;;5.85;5.28;;;;;24.00;100337.00;;;;2063026;28;21073;-52
2023/06/13 04:10:07;;;;;;;5.23;4.50;;;;;24.00;100335.00;;;;2060399;28;20285;-52
2023/06/13 04:11:08;;;;;;;9.10;5.10;;;;;24.00;100335.00;;;;2059747;28;20285;-52
2023/06/13 04:12:08;;;;;;;5.30;4.80;;;;;24.00;100337.00;;;;2060041;28;20577;-52
2023/06/13 04:13:09;;;;;;;5.40;5.00;;;;;24.00;100335.00;;;;2050324;28;20248;-53
2023/06/13 04:14:09;;;;;;;6.00;5.50;;;;;24.10;100335.00;;;;2059608;28;20218;-52
2023/06/13 04:15:10;;;;;;;4.80;4.40;;;;;24.10;100336.00;;;;2065927;28;20313;-51
2023/06/13 04:16:10;;;;;;;5.27;4.87;;;;;24.00;100338.00;;;;2062059;28;20211;-51
2023/06/13 04:17:10;;;;;;;5.10;4.60;;;;;24.00;100343.00;;;;2059889;28;21015;-52
2023/06/13 04:18:11;;;;;;;7.60;6.40;;;;;24.00;100338.00;;;;2056568;28;20217;-52
2023/06/13 04:19:18;;;;;;;5.50;5.00;;;;;24.00;100344.00;;;;2062113;28;20227;-52
2023/06/13 04:20:21;;;;;;;6.00;5.20;;;;;24.00;100342.00;;;;2060681;28;20833;-51
2023/06/13 04:21:24;;;;;;;6.93;5.00;;;;;24.00;100339.00;;;;2058937;28;20225;-52
2023/06/13 04:22:24;;;;;;;7.82;5.40;;;;;24.00;100340.00;;;;2064771;28;20312;-52
2023/06/13 04:23:25;;;;;;;6.90;4.57;;;;;24.00;100341.00;;;;2052409;28;20265;-52
2023/06/13 04:24:26;;;;;;;5.30;4.77;;;;;24.00;100339.00;;;;2061569;28;20227;-51
2023/06/13 04:25:26;;;;;;;6.10;5.50;;;;;24.00;100339.00;;;;2066825;28;20450;-52
2023/06/13 04:26:27;;;;;;;5.63;4.90;;;;;24.00;100336.00;;;;2061352;28;20350;-51
2023/06/13 04:27:28;;;;;;;7.47;5.30;;;;;24.00;100334.00;;;;2060770;28;20233;-52
2023/06/13 04:28:33;;;;;;;5.35;4.95;;;;;24.10;100340.00;;;;2050893;28;20478;-51
2023/06/13 04:29:34;;;;;;;5.00;4.60;;;;;24.00;100343.00;;;;2061979;28;20314;-52
2023/06/13 04:30:35;;;;;;;5.22;4.82;;;;;24.00;100346.00;;;;2056261;28;20273;-52
2023/06/13 04:31:38;;;;;;;6.07;5.47;;;;;24.00;100352.00;;;;2061266;28;20574;-52
2023/06/13 04:32:39;;;;;;;5.97;4.80;;;;;24.00;100340.00;;;;2062192;28;20211;-52
2023/06/13 04:33:40;;;;;;;5.75;5.25;;;;;24.10;100346.00;;;;2051169;28;20211;-52
2023/06/13 04:34:44;;;;;;;5.75;5.13;;;;;24.10;100347.00;;;;2062222;28;20211;-52
2023/06/13 04:35:44;;;;;;;5.82;5.28;;;;;24.00;100350.00;;;;2059452;28;20215;-53
2023/06/13 04:36:45;;;;;;;4.93;4.47;;;;;24.00;100347.00;;;;2054706;28;20211;-52
2023/06/13 04:37:46;;;;;;;6.23;5.63;;;;;24.00;100343.00;;;;2054540;28;20592;-52
2023/06/13 04:38:46;;;;;;;5.53;5.03;;;;;24.00;100342.00;;;;2052453;28;20219;-51
2023/06/13 04:39:46;;;;;;;5.63;5.13;;;;;24.00;100341.00;;;;2059838;28;20218;-52
2023/06/13 04:40:50;;;;;;;5.83;5.17;;;;;24.10;100268.00;;;;2061411;28;20268;-52
2023/06/13 04:41:55;;;;;;;6.07;5.50;;;;;24.10;100343.00;;;;2064804;28;20299;-52
2023/06/13 04:42:55;;;;;;;5.45;4.95;;;;;24.10;100349.00;;;;2062749;28;20226;-51
2023/06/13 04:43:56;;;;;;;5.23;4.70;;;;;24.00;100345.00;;;;2055751;28;20276;-52
2023/06/13 04:44:58;;;;;;;5.63;5.13;;;;;24.00;100339.00;;;;2065382;28;20222;-52
2023/06/13 04:46:03;;;;;;;5.40;4.90;;;;;24.00;100339.00;;;;2062092;28;20702;-52
2023/06/13 04:47:07;;;;;;;5.78;5.03;;;;;24.10;100349.00;;;;2058316;28;20306;-51
2023/06/13 04:48:09;;;;;;;6.72;5.53;;;;;24.10;100340.00;;;;2050246;28;20215;-51
2023/06/13 04:49:09;;;;;;;6.32;5.28;;;;;24.10;100349.00;;;;2056693;28;20918;-52
2023/06/13 04:50:10;;;;;;;6.73;4.63;;;;;24.10;100350.00;;;;2064950;28;20218;-52
2023/06/13 04:51:10;;;;;;;7.80;4.87;;;;;24.00;100348.00;;;;2063244;28;20243;-52
2023/06/13 04:52:14;;;;;;;5.43;4.90;;;;;24.10;100347.00;;;;2059147;28;20481;-53
2023/06/13 04:53:16;;;;;;;5.65;5.15;;;;;24.10;100348.00;;;;2051632;28;20227;-52
2023/06/13 04:54:16;;;;;;;5.68;5.18;;;;;24.00;100357.00;;;;2057070;28;20235;-52
2023/06/13 04:55:17;;;;;;;5.57;5.07;;;;;24.00;100350.00;;;;2061345;28;20996;-52
2023/06/13 04:56:17;;;;;;;7.03;5.27;;;;;24.10;100349.00;;;;2061802;28;21024;-52
2023/06/13 04:57:18;;;;;;;6.03;5.43;;;;;24.10;100355.00;;;;2061254;28;20206;-52
2023/06/13 04:58:19;;;;;;;10.40;5.25;;;;;24.10;100365.00;;;;2052695;28;20234;-52
2023/06/13 04:59:20;;;;;;;5.93;5.40;;;;;24.10;100361.00;;;;2060991;28;20246;-53
2023/06/13 05:00:22;;;;;;;6.67;5.27;;;;;24.10;100355.00;;;;2061879;28;20456;-52
2023/06/13 05:01:26;;;;;;;6.90;5.40;;;;;24.00;100358.00;;;;2060722;28;20298;-52
2023/06/13 05:02:28;;;;;;;5.55;4.80;;;;;24.00;100361.00;;;;2061013;28;20281;-51
2023/06/13 05:03:29;;;;;;;5.68;5.15;;;;;24.10;100363.00;;;;2052458;28;20238;-52
2023/06/13 05:04:29;;;;;;;6.90;5.10;;;;;24.10;100366.00;;;;2060986;28;20289;-53
2023/06/13 05:05:30;;;;;;;6.13;5.10;;;;;24.10;100364.00;;;;2054591;28;20285;-52